createdAt,value
2022-10-01T00:00:15.381Z,7.42
2022-10-01T00:01:15.412Z,7.46
2022-10-01T00:02:15.344Z,7.37
2022-10-01T00:03:15.392Z,7.40
2022-10-01T00:04:15.333Z,7.33
2022-10-01T00:05:15.314Z,7.49
2022-10-01T00:06:15.320Z,7.43
2022-10-01T00:07:15.538Z,7.42
2022-10-01T00:08:15.307Z,7.44
2022-10-01T00:09:15.280Z,7.44
2022-10-01T00:10:15.268Z,7.42
2022-10-01T00:11:15.253Z,7.33
2022-10-01T00:12:15.273Z,7.49
2022-10-01T00:13:15.233Z,7.42
2022-10-01T00:14:15.246Z,7.36
2022-10-01T00:15:15.229Z,7.29
2022-10-01T00:16:15.223Z,7.34
2022-10-01T00:17:15.216Z,7.26
2022-10-01T00:18:15.183Z,7.31
2022-10-01T00:19:15.170Z,7.31
2022-10-01T00:20:15.158Z,7.24
2022-10-01T00:21:15.170Z,7.26
2022-10-01T00:22:15.132Z,7.29
2022-10-01T00:23:15.124Z,7.31
2022-10-01T00:24:22.805Z,7.33
2022-10-01T00:25:22.759Z,7.33
2022-10-01T00:26:15.158Z,7.37
2022-10-01T00:27:15.181Z,7.29
2022-10-01T00:28:15.194Z,7.33
2022-10-01T00:29:15.099Z,7.31
2022-10-01T00:30:15.062Z,7.37
2022-10-01T00:31:15.132Z,7.31
2022-10-01T00:32:15.046Z,7.42
2022-10-01T00:33:15.033Z,7.47
2022-10-01T00:34:15.025Z,7.58
2022-10-01T00:35:15.004Z,7.49
2022-10-01T00:36:14.987Z,7.50
2022-10-01T00:37:14.995Z,7.46
2022-10-01T00:38:14.964Z,7.43
2022-10-01T00:39:14.978Z,7.44
2022-10-01T00:40:14.969Z,7.44
2022-10-01T00:41:14.939Z,7.46
2022-10-01T00:42:14.921Z,7.49
2022-10-01T00:43:14.921Z,7.43
2022-10-01T00:44:14.908Z,7.42
2022-10-01T00:45:14.888Z,7.43
2022-10-01T00:46:14.914Z,7.52
2022-10-01T00:47:14.879Z,7.50
2022-10-01T00:48:14.861Z,7.50
2022-10-01T00:49:14.856Z,7.46
2022-10-01T00:50:14.841Z,7.42
2022-10-01T00:51:14.831Z,7.37
2022-10-01T00:52:14.834Z,7.39
2022-10-01T00:53:14.798Z,7.43
2022-10-01T00:54:14.814Z,7.40
2022-10-01T00:55:14.789Z,7.29
2022-10-01T00:56:14.784Z,7.29
2022-10-01T00:57:14.769Z,7.47
2022-10-01T00:58:14.770Z,7.37
2022-10-01T00:59:14.744Z,7.33
2022-10-01T01:00:14.774Z,7.26
2022-10-01T01:01:14.838Z,7.26
2022-10-01T01:02:14.745Z,7.31
2022-10-01T01:03:14.717Z,7.21
2022-10-01T01:04:14.710Z,7.19
2022-10-01T01:05:14.682Z,7.24
2022-10-01T01:06:14.681Z,7.19
2022-10-01T01:07:14.667Z,7.15
2022-10-01T01:08:14.655Z,7.16
2022-10-01T01:09:14.637Z,7.19
2022-10-01T01:10:14.641Z,7.19
2022-10-01T01:11:14.627Z,7.21
2022-10-01T01:12:14.617Z,7.24
2022-10-01T01:13:14.604Z,7.21
2022-10-01T01:14:14.600Z,7.18
2022-10-01T01:15:14.591Z,7.22
2022-10-01T01:16:14.602Z,7.26
2022-10-01T01:17:14.553Z,7.33
2022-10-01T01:18:14.539Z,7.28
2022-10-01T01:19:14.533Z,7.19
2022-10-01T01:20:14.553Z,7.22
2022-10-01T01:21:14.522Z,7.21
2022-10-01T01:22:14.509Z,7.21
2022-10-01T01:23:14.495Z,7.24
2022-10-01T01:24:14.497Z,7.24
2022-10-01T01:25:14.472Z,7.34
2022-10-01T01:26:14.501Z,7.37
2022-10-01T01:27:14.471Z,7.31
2022-10-01T01:28:14.534Z,7.28
2022-10-01T01:29:14.430Z,7.33
2022-10-01T01:30:14.425Z,7.34
2022-10-01T01:31:14.473Z,7.29
2022-10-01T01:32:24.541Z,7.29
2022-10-01T01:33:14.515Z,7.19
2022-10-01T01:34:14.515Z,7.21
2022-10-01T01:35:14.392Z,7.21
2022-10-01T01:36:14.367Z,7.26
2022-10-01T01:37:14.351Z,7.22
2022-10-01T01:38:14.347Z,7.33
2022-10-01T01:39:14.314Z,7.37
2022-10-01T01:40:14.303Z,7.33
2022-10-01T01:41:14.343Z,7.44
2022-10-01T01:42:14.298Z,7.26
2022-10-01T01:43:14.293Z,7.31
2022-10-01T01:44:14.289Z,7.33
2022-10-01T01:45:14.250Z,7.34
2022-10-01T01:46:14.283Z,7.34
2022-10-01T01:47:14.255Z,7.42
2022-10-01T01:48:14.273Z,7.31
2022-10-01T01:49:14.213Z,7.39
2022-10-01T01:50:14.242Z,7.34
2022-10-01T01:51:14.189Z,7.46
2022-10-01T01:52:14.191Z,7.46
2022-10-01T01:53:14.196Z,7.44
2022-10-01T01:54:14.176Z,7.42
2022-10-01T01:55:17.433Z,7.31
2022-10-01T01:56:14.155Z,7.36
2022-10-01T01:57:14.209Z,7.29
2022-10-01T01:58:14.122Z,7.40
2022-10-01T01:59:14.133Z,7.47
2022-10-01T02:00:14.113Z,7.46
2022-10-01T02:01:14.145Z,7.47
2022-10-01T02:02:14.194Z,7.54
2022-10-01T02:03:14.070Z,7.55
2022-10-01T02:04:14.051Z,7.57
2022-10-01T02:05:14.087Z,7.60
2022-10-01T02:06:14.048Z,7.58
2022-10-01T02:07:14.030Z,7.57
2022-10-01T02:08:14.013Z,7.60
2022-10-01T02:09:14.004Z,7.58
2022-10-01T02:10:14.021Z,7.57
2022-10-01T02:11:13.986Z,7.58
2022-10-01T02:12:14.020Z,7.52
2022-10-01T02:13:13.966Z,7.55
2022-10-01T02:14:13.946Z,7.52
2022-10-01T02:15:13.946Z,7.55
2022-10-01T02:16:14.044Z,7.44
2022-10-01T02:17:14.000Z,7.57
2022-10-01T02:18:13.924Z,7.55
2022-10-01T02:19:13.910Z,7.73
2022-10-01T02:20:13.895Z,7.52
2022-10-01T02:21:13.882Z,7.49
2022-10-01T02:22:13.863Z,7.61
2022-10-01T02:23:13.884Z,7.57
2022-10-01T02:24:13.841Z,7.64
2022-10-01T02:25:13.828Z,7.52
2022-10-01T02:26:13.853Z,7.57
2022-10-01T02:27:13.833Z,7.68
2022-10-01T02:28:13.893Z,7.57
2022-10-01T02:29:13.799Z,7.60
2022-10-01T02:30:13.781Z,7.64
2022-10-01T02:31:13.834Z,7.54
2022-10-01T02:32:13.786Z,7.58
2022-10-01T02:33:13.751Z,7.58
2022-10-01T02:34:14.779Z,7.62
2022-10-01T02:35:13.747Z,7.77
2022-10-01T02:36:13.722Z,7.68
2022-10-01T02:37:13.744Z,7.71
2022-10-01T02:38:13.696Z,7.76
2022-10-01T02:39:13.684Z,7.78
2022-10-01T02:40:13.684Z,7.81
2022-10-01T02:41:13.683Z,7.91
2022-10-01T02:42:13.653Z,7.91
2022-10-01T02:43:13.674Z,7.87
2022-10-01T02:44:13.636Z,7.92
2022-10-01T02:45:13.635Z,7.81
2022-10-01T02:46:21.546Z,7.84
2022-10-01T02:47:13.723Z,7.87
2022-10-01T02:48:13.706Z,7.83
2022-10-01T02:49:26.359Z,7.83
2022-10-01T02:50:14.720Z,7.86
2022-10-01T02:51:13.622Z,7.83
2022-10-01T02:52:13.658Z,7.84
2022-10-01T02:53:13.559Z,7.84
2022-10-01T02:54:13.542Z,7.88
2022-10-01T02:55:13.527Z,7.84
2022-10-01T02:56:13.508Z,7.84
2022-10-01T02:57:13.512Z,7.88
2022-10-01T02:58:13.491Z,7.84
2022-10-01T02:59:13.517Z,7.94
2022-10-01T03:00:13.481Z,7.92
2022-10-01T03:01:13.489Z,7.98
2022-10-01T03:02:13.563Z,8.06
2022-10-01T03:03:13.437Z,8.04
2022-10-01T03:04:13.433Z,8.06
2022-10-01T03:05:13.444Z,8.12
2022-10-01T03:06:13.534Z,8.17
2022-10-01T03:07:13.390Z,8.10
2022-10-01T03:08:13.421Z,8.06
2022-10-01T03:09:13.361Z,8.01
2022-10-01T03:10:13.400Z,8.02
2022-10-01T03:11:21.123Z,8.12
2022-10-01T03:12:13.519Z,8.12
2022-10-01T03:13:13.495Z,8.14
2022-10-01T03:14:13.351Z,8.17
2022-10-01T03:15:13.395Z,8.06
2022-10-01T03:16:13.402Z,8.13
2022-10-01T03:17:13.277Z,8.02
2022-10-01T03:18:13.300Z,8.05
2022-10-01T03:19:13.271Z,8.09
2022-10-01T03:20:13.288Z,8.06
2022-10-01T03:21:13.250Z,8.10
2022-10-01T03:22:13.257Z,8.01
2022-10-01T03:23:13.216Z,8.06
2022-10-01T03:24:13.215Z,8.05
2022-10-01T03:25:13.200Z,8.10
2022-10-01T03:26:13.193Z,7.99
2022-10-01T03:27:13.186Z,8.06
2022-10-01T03:28:13.230Z,7.99
2022-10-01T03:29:13.153Z,8.06
2022-10-01T03:30:13.162Z,8.17
2022-10-01T03:31:13.193Z,8.12
2022-10-01T03:32:13.135Z,8.06
2022-10-01T03:33:13.123Z,8.09
2022-10-01T03:34:13.112Z,8.06
2022-10-01T03:35:13.090Z,8.12
2022-10-01T03:36:13.106Z,8.10
2022-10-01T03:37:13.086Z,8.10
2022-10-01T03:38:13.087Z,8.05
2022-10-01T03:39:13.055Z,8.10
2022-10-01T03:40:13.043Z,8.02
2022-10-01T03:41:13.030Z,8.05
2022-10-01T03:42:13.028Z,8.09
2022-10-01T03:43:13.014Z,8.05
2022-10-01T03:44:13.014Z,7.98
2022-10-01T03:45:13.003Z,7.94
2022-10-01T03:46:13.036Z,8.04
2022-10-01T03:47:12.971Z,7.96
2022-10-01T03:48:12.973Z,8.05
2022-10-01T03:49:12.965Z,7.91
2022-10-01T03:50:12.949Z,7.94
2022-10-01T03:51:15.606Z,7.98
2022-10-01T03:52:13.935Z,7.99
2022-10-01T03:53:12.911Z,8.05
2022-10-01T03:54:12.914Z,8.05
2022-10-01T03:55:12.888Z,7.92
2022-10-01T03:56:12.870Z,7.92
2022-10-01T03:57:12.855Z,7.95
2022-10-01T03:58:12.934Z,8.05
2022-10-01T03:59:12.850Z,8.06
2022-10-01T04:00:12.875Z,8.10
2022-10-01T04:01:12.894Z,8.06
2022-10-01T04:02:12.911Z,8.04
2022-10-01T04:03:12.857Z,8.12
2022-10-01T04:04:12.787Z,8.16
2022-10-01T04:05:12.817Z,8.14
2022-10-01T04:06:12.764Z,8.14
2022-10-01T04:07:12.762Z,8.14
2022-10-01T04:08:12.768Z,8.17
2022-10-01T04:09:12.735Z,8.21
2022-10-01T04:10:12.733Z,8.19
2022-10-01T04:11:12.741Z,8.20
2022-10-01T04:12:12.728Z,8.24
2022-10-01T04:13:12.710Z,8.24
2022-10-01T04:14:12.678Z,8.28
2022-10-01T04:15:12.675Z,8.28
2022-10-01T04:16:12.746Z,8.28
2022-10-01T04:17:12.657Z,8.24
2022-10-01T04:18:12.661Z,8.29
2022-10-01T04:19:12.660Z,8.23
2022-10-01T04:20:12.621Z,8.17
2022-10-01T04:21:12.601Z,8.16
2022-10-01T04:22:12.617Z,8.24
2022-10-01T04:23:12.578Z,8.31
2022-10-01T04:24:12.591Z,8.24
2022-10-01T04:25:12.586Z,8.24
2022-10-01T04:26:12.553Z,8.28
2022-10-01T04:27:12.547Z,8.23
2022-10-01T04:28:12.561Z,8.24
2022-10-01T04:29:12.518Z,8.23
2022-10-01T04:30:12.522Z,8.19
2022-10-01T04:31:12.547Z,8.19
2022-10-01T04:32:12.513Z,8.24
2022-10-01T04:33:12.485Z,8.28
2022-10-01T04:34:12.479Z,8.31
2022-10-01T04:35:12.484Z,8.37
2022-10-01T04:36:12.452Z,8.35
2022-10-01T04:37:12.440Z,8.38
2022-10-01T04:38:12.496Z,8.44
2022-10-01T04:39:12.415Z,8.47
2022-10-01T04:40:12.451Z,8.49
2022-10-01T04:41:12.387Z,8.47
2022-10-01T04:42:12.398Z,8.46
2022-10-01T04:43:12.407Z,8.65
2022-10-01T04:44:12.378Z,8.55
2022-10-01T04:45:12.355Z,8.60
2022-10-01T04:46:12.361Z,8.50
2022-10-01T04:47:12.336Z,8.62
2022-10-01T04:48:12.323Z,8.67
2022-10-01T04:49:12.301Z,8.59
2022-10-01T04:50:12.309Z,8.53
2022-10-01T04:51:21.031Z,8.63
2022-10-01T04:52:12.375Z,8.55
2022-10-01T04:53:12.387Z,8.62
2022-10-01T04:54:12.293Z,8.65
2022-10-01T04:55:12.243Z,8.63
2022-10-01T04:56:12.280Z,8.65
2022-10-01T04:57:12.314Z,8.71
2022-10-01T04:58:12.221Z,8.67
2022-10-01T04:59:12.193Z,8.63
2022-10-01T05:00:12.229Z,8.78
2022-10-01T05:01:12.229Z,8.78
2022-10-01T05:02:12.199Z,8.77
2022-10-01T05:03:12.169Z,8.74
2022-10-01T05:04:12.171Z,8.74
2022-10-01T05:05:12.162Z,8.77
2022-10-01T05:06:12.138Z,8.86
2022-10-01T05:07:12.115Z,8.88
2022-10-01T05:08:12.106Z,8.88
2022-10-01T05:09:12.102Z,8.81
2022-10-01T05:10:12.206Z,8.89
2022-10-01T05:11:12.078Z,8.92
2022-10-01T05:12:12.076Z,8.92
2022-10-01T05:13:12.056Z,8.88
2022-10-01T05:14:12.084Z,8.89
2022-10-01T05:15:12.023Z,8.88
2022-10-01T05:16:12.143Z,8.90
2022-10-01T05:17:12.013Z,8.90
2022-10-01T05:18:12.003Z,8.88
2022-10-01T05:19:12.004Z,8.89
2022-10-01T05:20:11.988Z,8.90
2022-10-01T05:21:11.972Z,8.89
2022-10-01T05:22:11.966Z,8.88
2022-10-01T05:23:11.948Z,8.89
2022-10-01T05:24:11.938Z,8.90
2022-10-01T05:25:11.929Z,8.92
2022-10-01T05:26:11.907Z,8.92
2022-10-01T05:27:11.936Z,8.93
2022-10-01T05:28:11.946Z,8.92
2022-10-01T05:29:11.875Z,8.90
2022-10-01T05:30:11.871Z,8.92
2022-10-01T05:31:11.872Z,8.89
2022-10-01T05:32:11.857Z,8.89
2022-10-01T05:33:12.118Z,8.88
2022-10-01T05:34:11.872Z,8.96
2022-10-01T05:35:11.821Z,8.99
2022-10-01T05:36:11.798Z,9.01
2022-10-01T05:37:11.792Z,9.08
2022-10-01T05:38:11.780Z,9.06
2022-10-01T05:39:11.784Z,9.08
2022-10-01T05:40:11.773Z,9.12
2022-10-01T05:41:11.740Z,9.16
2022-10-01T05:42:11.746Z,9.18
2022-10-01T05:43:11.766Z,9.22
2022-10-01T05:44:11.744Z,9.23
2022-10-01T05:45:11.729Z,9.29
2022-10-01T05:46:11.725Z,9.41
2022-10-01T05:47:11.684Z,9.40
2022-10-01T05:48:11.727Z,9.40
2022-10-01T05:49:11.773Z,9.41
2022-10-01T05:50:11.643Z,9.50
2022-10-01T05:51:11.635Z,9.34
2022-10-01T05:52:11.689Z,9.45
2022-10-01T05:53:11.630Z,9.48
2022-10-01T05:54:11.632Z,9.47
2022-10-01T05:55:11.611Z,9.42
2022-10-01T05:56:11.589Z,9.47
2022-10-01T05:57:11.605Z,9.34
2022-10-01T05:58:11.560Z,9.41
2022-10-01T05:59:11.578Z,9.45
2022-10-01T06:00:11.561Z,9.44
2022-10-01T06:01:11.554Z,9.51
2022-10-01T06:02:11.649Z,9.47
2022-10-01T06:03:11.758Z,9.45
2022-10-01T06:04:11.493Z,9.50
2022-10-01T06:05:11.522Z,9.50
2022-10-01T06:06:11.508Z,9.54
2022-10-01T06:07:11.473Z,9.52
2022-10-01T06:08:11.458Z,9.50
2022-10-01T06:09:11.443Z,9.54
2022-10-01T06:10:11.473Z,9.54
2022-10-01T06:11:11.438Z,9.59
2022-10-01T06:12:11.428Z,9.48
2022-10-01T06:13:11.420Z,9.54
2022-10-01T06:14:11.418Z,9.62
2022-10-01T06:15:11.384Z,9.47
2022-10-01T06:16:11.427Z,9.65
2022-10-01T06:17:11.403Z,9.66
2022-10-01T06:18:11.343Z,9.66
2022-10-01T06:19:11.346Z,9.66
2022-10-01T06:20:11.340Z,9.66
2022-10-01T06:21:11.336Z,9.66
2022-10-01T06:22:11.437Z,9.67
2022-10-01T06:23:11.509Z,9.75
2022-10-01T06:24:11.287Z,9.77
2022-10-01T06:25:11.294Z,9.75
2022-10-01T06:26:11.439Z,9.67
2022-10-01T06:27:11.262Z,9.75
2022-10-01T06:28:11.323Z,9.78
2022-10-01T06:29:11.241Z,9.78
2022-10-01T06:30:11.228Z,9.80
2022-10-01T06:31:20.120Z,9.77
2022-10-01T06:32:11.269Z,9.78
2022-10-01T06:33:11.254Z,9.78
2022-10-01T06:34:11.281Z,9.77
2022-10-01T06:35:11.242Z,9.81
2022-10-01T06:36:11.163Z,9.91
2022-10-01T06:37:11.196Z,9.91
2022-10-01T06:38:11.190Z,9.83
2022-10-01T06:39:11.146Z,9.93
2022-10-01T06:40:11.124Z,9.90
2022-10-01T06:41:11.108Z,9.87
2022-10-01T06:42:11.091Z,9.91
2022-10-01T06:43:11.125Z,9.94
2022-10-01T06:44:11.071Z,10.02
2022-10-01T06:45:11.072Z,9.90
2022-10-01T06:46:21.248Z,9.88
2022-10-01T06:47:11.161Z,9.99
2022-10-01T06:48:11.083Z,9.99
2022-10-01T06:49:11.115Z,9.99
2022-10-01T06:50:11.025Z,10.08
2022-10-01T06:51:11.053Z,10.05
2022-10-01T06:52:10.990Z,10.06
2022-10-01T06:53:10.983Z,10.05
2022-10-01T06:54:10.993Z,10.14
2022-10-01T06:55:15.727Z,10.12
2022-10-01T06:56:11.957Z,10.16
2022-10-01T06:57:10.934Z,10.16
2022-10-01T06:58:10.970Z,10.09
2022-10-01T06:59:10.924Z,10.20
2022-10-01T07:00:10.906Z,10.18
2022-10-01T07:01:10.961Z,10.18
2022-10-01T07:02:10.944Z,10.23
2022-10-01T07:03:10.895Z,10.28
2022-10-01T07:04:10.895Z,10.35
2022-10-01T07:05:10.857Z,10.30
2022-10-01T07:06:10.879Z,10.36
2022-10-01T07:07:10.832Z,10.41
2022-10-01T07:08:10.806Z,10.36
2022-10-01T07:09:10.807Z,10.39
2022-10-01T07:10:10.806Z,10.35
2022-10-01T07:11:10.811Z,10.43
2022-10-01T07:12:10.803Z,10.49
2022-10-01T07:13:10.771Z,10.54
2022-10-01T07:14:10.760Z,10.48
2022-10-01T07:15:10.754Z,10.54
2022-10-01T07:16:10.829Z,10.60
2022-10-01T07:17:10.719Z,10.61
2022-10-01T07:18:10.728Z,10.73
2022-10-01T07:19:10.717Z,10.82
2022-10-01T07:20:10.681Z,10.97
2022-10-01T07:21:10.679Z,10.91
2022-10-01T07:22:10.752Z,10.86
2022-10-01T07:23:10.660Z,10.87
2022-10-01T07:24:10.650Z,10.91
2022-10-01T07:25:10.684Z,10.97
2022-10-01T07:26:10.639Z,11.05
2022-10-01T07:27:10.612Z,11.13
2022-10-01T07:28:10.672Z,11.22
2022-10-01T07:29:10.602Z,11.31
2022-10-01T07:30:10.578Z,11.23
2022-10-01T07:31:10.559Z,11.38
2022-10-01T07:32:10.667Z,11.43
2022-10-01T07:33:10.567Z,11.43
2022-10-01T07:34:10.552Z,11.45
2022-10-01T07:35:10.537Z,11.51
2022-10-01T07:36:10.528Z,11.61
2022-10-01T07:37:10.505Z,11.58
2022-10-01T07:38:10.509Z,11.62
2022-10-01T07:39:10.490Z,11.58
2022-10-01T07:40:10.480Z,11.64
2022-10-01T07:41:10.452Z,11.69
2022-10-01T07:42:10.465Z,11.66
2022-10-01T07:43:10.437Z,11.69
2022-10-01T07:44:10.432Z,11.76
2022-10-01T07:45:10.437Z,11.66
2022-10-01T07:46:10.453Z,11.76
2022-10-01T07:47:10.390Z,11.71
2022-10-01T07:48:10.388Z,11.70
2022-10-01T07:49:10.374Z,11.69
2022-10-01T07:50:10.377Z,11.69
2022-10-01T07:51:10.382Z,11.87
2022-10-01T07:52:13.307Z,11.80
2022-10-01T07:53:10.346Z,11.70
2022-10-01T07:54:10.320Z,11.84
2022-10-01T07:55:10.325Z,11.77
2022-10-01T07:56:10.302Z,11.96
2022-10-01T07:57:10.302Z,11.91
2022-10-01T07:58:10.319Z,11.85
2022-10-01T07:59:10.262Z,11.93
2022-10-01T08:00:10.274Z,11.99
2022-10-01T08:01:10.299Z,11.97
2022-10-01T08:02:10.291Z,12.04
2022-10-01T08:03:10.231Z,12.03
2022-10-01T08:04:10.243Z,12.13
2022-10-01T08:05:10.208Z,12.08
2022-10-01T08:06:10.194Z,12.10
2022-10-01T08:07:10.225Z,12.08
2022-10-01T08:08:10.183Z,12.07
2022-10-01T08:09:10.174Z,12.23
2022-10-01T08:10:10.167Z,12.22
2022-10-01T08:11:10.149Z,12.21
2022-10-01T08:12:20.244Z,12.29
2022-10-01T08:13:10.325Z,12.36
2022-10-01T08:14:10.153Z,12.32
2022-10-01T08:15:10.280Z,12.32
2022-10-01T08:16:10.118Z,12.35
2022-10-01T08:17:10.109Z,12.40
2022-10-01T08:18:10.091Z,12.40
2022-10-01T08:19:10.049Z,12.30
2022-10-01T08:20:10.041Z,12.38
2022-10-01T08:21:10.062Z,12.38
2022-10-01T08:22:10.032Z,12.43
2022-10-01T08:23:10.033Z,12.41
2022-10-01T08:24:10.057Z,12.43
2022-10-01T08:25:09.987Z,12.40
2022-10-01T08:26:09.975Z,12.47
2022-10-01T08:27:09.969Z,12.43
2022-10-01T08:28:10.029Z,12.51
2022-10-01T08:29:13.595Z,12.51
2022-10-01T08:30:10.939Z,12.59
2022-10-01T08:31:10.032Z,12.61
2022-10-01T08:32:09.942Z,12.66
2022-10-01T08:33:09.895Z,12.81
2022-10-01T08:34:09.923Z,12.88
2022-10-01T08:35:09.881Z,12.76
2022-10-01T08:36:09.868Z,12.84
2022-10-01T08:37:09.853Z,12.91
2022-10-01T08:38:09.849Z,12.95
2022-10-01T08:39:09.867Z,13.14
2022-10-01T08:40:09.844Z,13.16
2022-10-01T08:41:09.814Z,13.13
2022-10-01T08:42:09.796Z,13.14
2022-10-01T08:43:09.791Z,13.19
2022-10-01T08:44:09.826Z,13.35
2022-10-01T08:45:09.825Z,13.36
2022-10-01T08:46:09.845Z,13.43
2022-10-01T08:47:09.757Z,13.38
2022-10-01T08:48:09.733Z,13.27
2022-10-01T08:49:09.744Z,13.24
2022-10-01T08:50:09.718Z,13.26
2022-10-01T08:51:09.747Z,13.32
2022-10-01T08:52:09.697Z,13.35
2022-10-01T08:53:09.687Z,13.38
2022-10-01T08:54:09.695Z,13.45
2022-10-01T08:55:09.780Z,13.40
2022-10-01T08:56:09.746Z,13.39
2022-10-01T08:57:09.656Z,13.39
2022-10-01T08:58:09.639Z,13.27
2022-10-01T08:59:17.984Z,13.23
2022-10-01T09:00:09.728Z,13.14
2022-10-01T09:01:09.699Z,13.04
2022-10-01T09:02:09.641Z,13.17
2022-10-01T09:03:09.690Z,13.09
2022-10-01T09:04:09.627Z,13.06
2022-10-01T09:05:09.704Z,13.19
2022-10-01T09:06:09.573Z,13.06
2022-10-01T09:07:09.546Z,13.17
2022-10-01T09:08:09.535Z,13.19
2022-10-01T09:09:09.501Z,13.21
2022-10-01T09:10:09.687Z,13.23
2022-10-01T09:11:09.537Z,13.24
2022-10-01T09:12:09.481Z,13.19
2022-10-01T09:13:09.475Z,13.19
2022-10-01T09:14:09.474Z,13.17
2022-10-01T09:15:09.443Z,13.23
2022-10-01T09:16:09.459Z,13.08
2022-10-01T09:17:09.438Z,13.09
2022-10-01T09:18:09.435Z,12.98
2022-10-01T09:19:09.406Z,12.99
2022-10-01T09:20:09.609Z,12.96
2022-10-01T09:21:09.389Z,12.73
2022-10-01T09:22:09.370Z,12.72
2022-10-01T09:23:09.405Z,12.76
2022-10-01T09:24:09.353Z,12.65
2022-10-01T09:25:09.584Z,12.58
2022-10-01T09:26:09.363Z,12.47
2022-10-01T09:27:09.335Z,12.40
2022-10-01T09:28:09.340Z,12.32
2022-10-01T09:29:09.314Z,12.40
2022-10-01T09:30:09.286Z,12.35
2022-10-01T09:31:09.436Z,12.35
2022-10-01T09:32:09.309Z,12.30
2022-10-01T09:33:09.268Z,12.35
2022-10-01T09:34:09.249Z,12.35
2022-10-01T09:35:09.303Z,12.40
2022-10-01T09:36:09.222Z,12.32
2022-10-01T09:37:09.207Z,12.36
2022-10-01T09:38:09.217Z,12.38
2022-10-01T09:39:09.191Z,12.44
2022-10-01T09:40:09.245Z,12.50
2022-10-01T09:41:09.170Z,12.62
2022-10-01T09:42:09.152Z,12.66
2022-10-01T09:43:09.212Z,12.66
2022-10-01T09:44:09.138Z,12.66
2022-10-01T09:45:09.138Z,12.73
2022-10-01T09:46:09.407Z,12.72
2022-10-01T09:47:09.724Z,12.79
2022-10-01T09:48:09.114Z,12.80
2022-10-01T09:49:09.085Z,12.77
2022-10-01T09:50:09.083Z,12.86
2022-10-01T09:51:09.057Z,12.80
2022-10-01T09:52:09.102Z,12.73
2022-10-01T09:53:17.042Z,12.73
2022-10-01T09:54:09.117Z,12.80
2022-10-01T09:55:09.067Z,12.79
2022-10-01T09:56:09.162Z,12.72
2022-10-01T09:57:09.027Z,12.69
2022-10-01T09:58:08.987Z,12.68
2022-10-01T09:59:08.987Z,12.58
2022-10-01T10:00:08.991Z,12.55
2022-10-01T10:01:08.951Z,12.53
2022-10-01T10:02:09.107Z,12.44
2022-10-01T10:03:09.091Z,12.28
2022-10-01T10:04:08.925Z,12.18
2022-10-01T10:05:08.919Z,12.22
2022-10-01T10:06:08.912Z,12.21
2022-10-01T10:07:08.896Z,12.10
2022-10-01T10:08:08.906Z,12.22
2022-10-01T10:09:08.887Z,12.13
2022-10-01T10:10:08.866Z,12.15
2022-10-01T10:11:08.847Z,12.07
2022-10-01T10:12:08.852Z,12.04
2022-10-01T10:13:08.853Z,11.96
2022-10-01T10:14:08.815Z,11.96
2022-10-01T10:15:08.817Z,11.96
2022-10-01T10:16:08.846Z,12.07
2022-10-01T10:17:08.800Z,12.04
2022-10-01T10:18:08.873Z,12.11
2022-10-01T10:19:08.756Z,12.04
2022-10-01T10:20:08.740Z,12.08
2022-10-01T10:21:08.732Z,12.05
2022-10-01T10:22:08.725Z,12.05
2022-10-01T10:23:08.737Z,12.07
2022-10-01T10:24:08.700Z,11.93
2022-10-01T10:25:08.689Z,12.05
2022-10-01T10:26:08.751Z,11.97
2022-10-01T10:27:08.666Z,12.04
2022-10-01T10:28:08.702Z,11.99
2022-10-01T10:29:08.655Z,11.96
2022-10-01T10:30:08.668Z,11.93
2022-10-01T10:31:08.704Z,11.82
2022-10-01T10:32:08.611Z,11.89
2022-10-01T10:33:08.621Z,11.91
2022-10-01T10:34:08.602Z,11.93
2022-10-01T10:35:08.594Z,11.93
2022-10-01T10:36:08.581Z,11.96
2022-10-01T10:37:08.552Z,12.07
2022-10-01T10:38:08.544Z,12.10
2022-10-01T10:39:08.547Z,12.17
2022-10-01T10:40:08.544Z,12.23
2022-10-01T10:41:08.519Z,12.13
2022-10-01T10:42:08.576Z,12.23
2022-10-01T10:43:08.501Z,12.22
2022-10-01T10:44:08.486Z,12.23
2022-10-01T10:45:08.522Z,12.26
2022-10-01T10:46:08.531Z,12.29
2022-10-01T10:47:08.461Z,12.22
2022-10-01T10:48:08.436Z,12.32
2022-10-01T10:49:08.439Z,12.25
2022-10-01T10:50:08.412Z,12.23
2022-10-01T10:51:08.466Z,12.22
2022-10-01T10:52:08.391Z,12.25
2022-10-01T10:53:08.391Z,12.13
2022-10-01T10:54:08.383Z,12.21
2022-10-01T10:55:08.593Z,12.14
2022-10-01T10:56:08.376Z,12.18
2022-10-01T10:57:08.339Z,12.21
2022-10-01T10:58:08.333Z,12.14
2022-10-01T10:59:08.312Z,12.25
2022-10-01T11:00:08.317Z,12.14
2022-10-01T11:01:08.329Z,12.11
2022-10-01T11:02:08.455Z,12.14
2022-10-01T11:03:08.293Z,12.08
2022-10-01T11:04:08.255Z,12.08
2022-10-01T11:05:08.289Z,12.13
2022-10-01T11:06:08.230Z,12.13
2022-10-01T11:07:08.246Z,12.17
2022-10-01T11:08:08.233Z,12.22
2022-10-01T11:09:08.202Z,12.14
2022-10-01T11:10:08.191Z,12.13
2022-10-01T11:11:08.182Z,12.10
2022-10-01T11:12:08.189Z,12.11
2022-10-01T11:13:08.166Z,12.13
2022-10-01T11:14:08.155Z,12.10
2022-10-01T11:15:08.135Z,12.14
2022-10-01T11:16:08.217Z,12.22
2022-10-01T11:17:08.126Z,12.14
2022-10-01T11:18:08.107Z,12.22
2022-10-01T11:19:08.113Z,12.17
2022-10-01T11:20:08.080Z,12.17
2022-10-01T11:21:08.075Z,12.23
2022-10-01T11:22:08.087Z,12.23
2022-10-01T11:23:08.065Z,12.23
2022-10-01T11:24:08.063Z,12.23
2022-10-01T11:25:08.028Z,12.26
2022-10-01T11:26:08.018Z,12.33
2022-10-01T11:27:08.001Z,12.32
2022-10-01T11:28:08.052Z,12.33
2022-10-01T11:29:07.999Z,12.43
2022-10-01T11:30:07.980Z,12.32
2022-10-01T11:31:08.068Z,12.32
2022-10-01T11:32:07.956Z,12.32
2022-10-01T11:33:07.945Z,12.32
2022-10-01T11:34:07.925Z,12.32
2022-10-01T11:35:07.936Z,12.30
2022-10-01T11:36:07.913Z,12.33
2022-10-01T11:37:07.904Z,12.32
2022-10-01T11:38:07.884Z,12.36
2022-10-01T11:39:07.876Z,12.22
2022-10-01T11:40:07.882Z,12.18
2022-10-01T11:41:07.851Z,12.21
2022-10-01T11:42:07.861Z,12.21
2022-10-01T11:43:07.939Z,12.18
2022-10-01T11:44:07.826Z,12.21
2022-10-01T11:45:07.827Z,12.21
2022-10-01T11:46:07.870Z,12.17
2022-10-01T11:47:07.789Z,12.25
2022-10-01T11:48:07.785Z,12.21
2022-10-01T11:49:07.761Z,12.21
2022-10-01T11:50:07.748Z,12.22
2022-10-01T11:51:07.766Z,12.21
2022-10-01T11:52:07.731Z,12.21
2022-10-01T11:53:07.725Z,12.21
2022-10-01T11:54:07.714Z,12.22
2022-10-01T11:55:07.714Z,12.13
2022-10-01T11:56:07.706Z,12.11
2022-10-01T11:57:07.670Z,12.10
2022-10-01T11:58:07.683Z,11.96
2022-10-01T11:59:07.655Z,12.04
2022-10-01T12:00:07.647Z,11.96
2022-10-01T12:01:07.654Z,12.03
2022-10-01T12:02:07.892Z,11.96
2022-10-01T12:03:07.620Z,11.99
2022-10-01T12:04:07.635Z,11.89
2022-10-01T12:05:07.634Z,11.97
2022-10-01T12:06:07.595Z,11.96
2022-10-01T12:07:07.601Z,11.89
2022-10-01T12:08:07.561Z,11.89
2022-10-01T12:09:07.576Z,11.87
2022-10-01T12:10:07.534Z,11.87
2022-10-01T12:11:07.531Z,11.88
2022-10-01T12:12:07.537Z,11.91
2022-10-01T12:13:07.517Z,11.82
2022-10-01T12:14:07.497Z,11.96
2022-10-01T12:15:07.502Z,11.95
2022-10-01T12:16:07.552Z,11.95
2022-10-01T12:17:07.499Z,11.89
2022-10-01T12:18:07.455Z,11.85
2022-10-01T12:19:07.448Z,11.85
2022-10-01T12:20:07.444Z,11.82
2022-10-01T12:21:07.445Z,11.77
2022-10-01T12:22:07.425Z,11.88
2022-10-01T12:23:07.428Z,11.80
2022-10-01T12:24:07.399Z,11.91
2022-10-01T12:25:07.404Z,11.93
2022-10-01T12:26:07.390Z,11.93
2022-10-01T12:27:07.365Z,11.95
2022-10-01T12:28:07.418Z,11.95
2022-10-01T12:29:07.361Z,12.03
2022-10-01T12:30:07.346Z,11.99
2022-10-01T12:31:07.399Z,12.07
2022-10-01T12:32:07.314Z,12.08
2022-10-01T12:33:07.326Z,12.05
2022-10-01T12:34:07.344Z,12.03
2022-10-01T12:35:07.281Z,12.08
2022-10-01T12:36:07.414Z,12.13
2022-10-01T12:37:07.257Z,12.10
2022-10-01T12:38:17.300Z,12.14
2022-10-01T12:39:14.975Z,12.11
2022-10-01T12:40:07.393Z,12.18
2022-10-01T12:41:07.223Z,12.21
2022-10-01T12:42:07.263Z,12.23
2022-10-01T12:43:07.315Z,12.23
2022-10-01T12:44:07.245Z,12.25
2022-10-01T12:45:07.178Z,12.35
2022-10-01T12:46:07.198Z,12.40
2022-10-01T12:47:07.160Z,12.33
2022-10-01T12:48:07.155Z,12.40
2022-10-01T12:49:07.138Z,12.41
2022-10-01T12:50:07.144Z,12.46
2022-10-01T12:51:07.120Z,12.47
2022-10-01T12:52:07.182Z,12.59
2022-10-01T12:53:07.097Z,12.63
2022-10-01T12:54:10.399Z,12.63
2022-10-01T12:55:08.088Z,12.72
2022-10-01T12:56:07.062Z,12.79
2022-10-01T12:57:07.087Z,12.72
2022-10-01T12:58:07.049Z,12.81
2022-10-01T12:59:07.028Z,12.80
2022-10-01T13:00:07.045Z,12.79
2022-10-01T13:01:07.043Z,12.76
2022-10-01T13:02:07.090Z,12.88
2022-10-01T13:03:06.976Z,13.08
2022-10-01T13:04:07.116Z,13.09
2022-10-01T13:05:07.008Z,13.08